Time;durP1;ratioP1;P1;durP2;ratioP2;P2;SDS_P1;SDS_P2;PMS_P1;PMS_P2;Temp;Humidity;BMP_temperature;BMP_pressure;BME280_temperature;BME280_humidity;BME280_pressure;Samples;Min_cycle;Max_cycle;Signal;HPM_P1;HPM_P2
2022/11/27 00:02:04;;;;;;;6.62;3.35;;;;;;;;;;4382940;32;69401;-65
2022/11/27 00:04:51;;;;;;;6.50;3.12;;;;;;;;;;4384130;32;69289;-66
2022/11/27 00:07:37;;;;;;;5.10;2.65;;;;;;;;;;4361217;32;68025;-66
2022/11/27 00:10:24;;;;;;;6.07;2.97;;;;;;;;;;4383153;32;71649;-65
2022/11/27 00:13:11;;;;;;;4.32;2.50;;;;;;;;;;4371650;32;65890;-65
2022/11/27 00:15:57;;;;;;;5.93;2.58;;;;;;;;;;4383380;32;67543;-66
2022/11/27 00:18:44;;;;;;;7.32;2.67;;;;;;;;;;4372611;32;66719;-65
2022/11/27 00:21:33;;;;;;;5.12;2.55;;;;;;;;;;4383046;32;70393;-65
2022/11/27 00:24:19;;;;;;;4.85;2.80;;;;;;;;;;4371516;32;66810;-66
2022/11/27 00:27:06;;;;;;;6.65;2.40;;;;;;;;;;4371663;32;69261;-66
2022/11/27 00:29:53;;;;;;;4.40;2.53;;;;;;;;;;4383022;32;59334;-66
2022/11/27 00:32:39;;;;;;;5.20;3.00;;;;;;;;;;4385235;32;69648;-65
2022/11/27 00:35:25;;;;;;;5.03;2.65;;;;;;;;;;4372032;32;69333;-65
2022/11/27 00:38:12;;;;;;;4.22;2.40;;;;;;;;;;4382441;32;67679;-65
2022/11/27 00:41:06;;;;;;;5.03;2.42;;;;;;;;;;4371145;32;60964;-66
2022/11/27 00:43:53;;;;;;;4.28;2.28;;;;;;;;;;4371603;32;69780;-66
2022/11/27 00:46:40;;;;;;;;;;;;;;;;;;4382560;32;69302;-66
2022/11/27 00:49:27;;;;;;;3.87;2.50;;;;;;;;;;4383634;32;67795;-66
2022/11/27 00:52:13;;;;;;;4.70;2.53;;;;;;;;;;4383284;32;71841;-65
2022/11/27 00:55:00;;;;;;;;;;;;;;;;;;4360938;32;66493;-66
2022/11/27 00:57:46;;;;;;;4.15;2.33;;;;;;;;;;4371124;32;68656;-65
2022/11/27 01:00:33;;;;;;;4.07;2.60;;;;;;;;;;4383647;32;59337;-65
2022/11/27 01:03:19;;;;;;;4.10;2.20;;;;;;;;;;4370814;32;71171;-66
2022/11/27 01:06:07;;;;;;;5.05;2.45;;;;;;;;;;4383312;32;64863;-66
2022/11/27 01:08:53;;;;;;;;;;;;;;;;;;4382318;32;67342;-66
2022/11/27 01:11:40;;;;;;;3.40;2.22;;;;;;;;;;4382261;32;58907;-65
2022/11/27 01:14:27;;;;;;;4.75;2.72;;;;;;;;;;4383103;32;69444;-65
2022/11/27 01:17:14;;;;;;;;;;;;;;;;;;4383636;32;69238;-66
2022/11/27 01:20:00;;;;;;;5.12;2.50;;;;;;;;;;4381450;32;68284;-66
2022/11/27 01:22:47;;;;;;;5.65;2.35;;;;;;;;;;4359542;32;72533;-66
2022/11/27 01:25:35;;;;;;;6.97;2.70;;;;;;;;;;4371262;32;65682;-66
2022/11/27 01:28:23;;;;;;;4.00;2.28;;;;;;;;;;4384062;32;68329;-65
2022/11/27 01:31:15;;;;;;;3.87;2.15;;;;;;;;;;4383129;32;67723;-66
2022/11/27 01:34:05;;;;;;;5.03;2.40;;;;;;;;;;4381332;32;71106;-66
2022/11/27 01:36:52;;;;;;;3.90;2.60;;;;;;;;;;4382019;32;64976;-66
2022/11/27 01:39:38;;;;;;;;;;;;;;;;;;4382516;32;68569;-67
2022/11/27 01:42:24;;;;;;;5.35;2.60;;;;;;;;;;4382926;32;59190;-65
2022/11/27 01:45:12;;;;;;;5.37;2.45;;;;;;;;;;4370740;32;70204;-66
2022/11/27 01:48:00;;;;;;;5.22;2.65;;;;;;;;;;4370947;32;69635;-65
2022/11/27 01:50:47;;;;;;;4.05;2.85;;;;;;;;;;4381989;32;67154;-64
2022/11/27 01:53:34;;;;;;;5.80;2.90;;;;;;;;;;4369994;32;72477;-65
2022/11/27 01:56:22;;;;;;;5.97;2.78;;;;;;;;;;4381415;32;70630;-65
2022/11/27 01:59:08;;;;;;;6.03;2.50;;;;;;;;;;4381700;32;69303;-66
2022/11/27 02:01:55;;;;;;;4.62;2.50;;;;;;;;;;4381926;32;67840;-65
2022/11/27 02:04:42;;;;;;;5.07;2.50;;;;;;;;;;4385504;32;71618;-65
2022/11/27 02:07:29;;;;;;;4.12;2.50;;;;;;;;;;4387151;32;66031;-65
2022/11/27 02:10:16;;;;;;;4.68;2.47;;;;;;;;;;4364680;32;68001;-66
2022/11/27 02:13:47;;;;;;;4.72;2.55;;;;;;;;;;4365167;32;59834;-68
2022/11/27 02:16:42;;;;;;;5.05;2.80;;;;;;;;;;4328423;32;71483;-65
2022/11/27 02:20:06;;;;;;;7.05;3.12;;;;;;;;;;4337903;32;70141;-65
2022/11/27 02:23:10;;;;;;;5.78;2.85;;;;;;;;;;4381741;32;68080;-65
2022/11/27 02:26:31;;;;;;;4.75;2.60;;;;;;;;;;4382458;32;59360;-66
2022/11/27 02:29:21;;;;;;;4.95;2.53;;;;;;;;;;4381609;32;70647;-65
2022/11/27 02:32:23;;;;;;;5.32;2.85;;;;;;;;;;4371692;32;68487;-65
2022/11/27 02:35:23;;;;;;;6.70;2.50;;;;;;;;;;4381271;32;67209;-65
2022/11/27 02:38:15;;;;;;;5.15;2.37;;;;;;;;;;4382440;32;71789;-65
2022/11/27 02:41:15;;;;;;;4.35;2.20;;;;;;;;;;4382085;32;64819;-65
2022/11/27 02:44:02;;;;;;;4.70;2.53;;;;;;;;;;4371303;32;68391;-66
2022/11/27 02:46:50;;;;;;;4.55;2.50;;;;;;;;;;4371775;32;60079;-65
2022/11/27 02:49:37;;;;;;;5.00;2.70;;;;;;;;;;4371527;32;71661;-65
2022/11/27 02:52:28;;;;;;;4.55;2.60;;;;;;;;;;4382006;32;65792;-65
2022/11/27 02:55:18;;;;;;;7.68;2.65;;;;;;;;;;4381331;32;68977;-65
2022/11/27 02:58:09;;;;;;;6.47;2.22;;;;;;;;;;4371509;32;59153;-66
2022/11/27 03:00:57;;;;;;;8.15;3.40;;;;;;;;;;4370193;32;71303;-65
2022/11/27 03:03:47;;;;;;;6.28;2.90;;;;;;;;;;4371682;32;68257;-66
2022/11/27 03:06:39;;;;;;;4.43;2.62;;;;;;;;;;4386882;32;68073;-65
2022/11/27 03:09:35;;;;;;;4.68;2.45;;;;;;;;;;4373449;32;72722;-65
2022/11/27 03:12:22;;;;;;;5.40;2.50;;;;;;;;;;4383901;32;70650;-66
2022/11/27 03:15:09;;;;;;;4.60;2.53;;;;;;;;;;4373823;32;69076;-65
2022/11/27 03:18:29;;;;;;;4.75;2.30;;;;;;;;;;4363394;32;67610;-65
2022/11/27 03:21:26;;;;;;;5.90;2.33;;;;;;;;;;4369029;32;70902;-66
2022/11/27 03:24:13;;;;;;;4.20;2.67;;;;;;;;;;4373823;32;64817;-66
2022/11/27 03:27:00;;;;;;;4.32;2.35;;;;;;;;;;4384022;32;67467;-65
2022/11/27 03:29:51;;;;;;;8.93;2.67;;;;;;;;;;4384803;32;59282;-70
2022/11/27 03:32:38;;;;;;;5.78;2.72;;;;;;;;;;4362270;32;71569;-64
2022/11/27 03:35:25;;;;;;;4.93;2.53;;;;;;;;;;4373223;32;68772;-64
2022/11/27 03:38:12;;;;;;;5.57;2.60;;;;;;;;;;4373379;32;68321;-66
2022/11/27 03:41:12;;;;;;;6.50;2.75;;;;;;;;;;4361541;32;60790;-65
2022/11/27 03:44:07;;;;;;;5.85;2.55;;;;;;;;;;4383027;32;70542;-66
2022/11/27 03:47:06;;;;;;;4.30;2.60;;;;;;;;;;4382832;32;68372;-66
2022/11/27 03:50:14;;;;;;;7.18;2.42;;;;;;;;;;4382927;32;66903;-65
2022/11/27 03:53:46;;;;;;;3.92;2.45;;;;;;;;;;4384074;32;72027;-66
2022/11/27 03:56:47;;;;;;;5.53;2.67;;;;;;;;;;4372094;32;66097;-66
2022/11/27 03:59:36;;;;;;;6.57;2.90;;;;;;;;;;4371545;32;68718;-66
2022/11/27 04:02:38;;;;;;;6.25;2.67;;;;;;;;;;4362088;32;60100;-65
2022/11/27 04:05:25;;;;;;;4.32;2.25;;;;;;;;;;4383627;32;71071;-65
2022/11/27 04:08:11;;;;;;;4.35;2.50;;;;;;;;;;4382600;32;64928;-66
2022/11/27 04:10:58;;;;;;;5.40;2.70;;;;;;;;;;4372200;32;68452;-65
2022/11/27 04:13:44;;;;;;;5.00;2.70;;;;;;;;;;4371406;32;59769;-66
2022/11/27 04:16:31;;;;;;;5.05;2.30;;;;;;;;;;4382229;32;69509;-66
2022/11/27 04:19:18;;;;;;;7.05;3.05;;;;;;;;;;4371097;32;68927;-66
2022/11/27 04:22:04;;;;;;;7.80;2.83;;;;;;;;;;4382646;32;66684;-66
2022/11/27 04:24:51;;;;;;;6.10;2.75;;;;;;;;;;4383675;32;71888;-65
2022/11/27 04:27:38;;;;;;;5.22;2.45;;;;;;;;;;4383706;32;65826;-65
2022/11/27 04:30:24;;;;;;;4.93;2.60;;;;;;;;;;4371683;32;69315;-65
2022/11/27 04:33:11;;;;;;;6.18;3.30;;;;;;;;;;4382478;32;67833;-66
2022/11/27 04:35:58;;;;;;;7.93;2.40;;;;;;;;;;4383491;32;71826;-65
2022/11/27 04:38:44;;;;;;;3.80;2.25;;;;;;;;;;4381855;32;65743;-65
2022/11/27 04:41:31;;;;;;;4.53;2.62;;;;;;;;;;4382503;32;68187;-65
2022/11/27 04:44:18;;;;;;;7.85;2.80;;;;;;;;;;4383879;32;59180;-65
2022/11/27 04:47:04;;;;;;;5.65;2.60;;;;;;;;;;4382023;32;69698;-66
2022/11/27 04:49:51;;;;;;;6.22;2.80;;;;;;;;;;4382344;32;69337;-65
2022/11/27 04:52:37;;;;;;;3.83;2.12;;;;;;;;;;4382164;32;67797;-65
2022/11/27 04:55:24;;;;;;;5.00;2.70;;;;;;;;;;4361063;32;60333;-65
2022/11/27 04:58:10;;;;;;;6.60;2.47;;;;;;;;;;4382047;32;70058;-64
2022/11/27 05:00:57;;;;;;;;;;;;;;;;;;4371180;32;69875;-65
2022/11/27 05:03:43;;;;;;;6.32;2.42;;;;;;;;;;4392781;32;67846;-66
2022/11/27 05:06:30;;;;;;;5.10;2.80;;;;;;;;;;4381829;32;70747;-65
2022/11/27 05:09:17;;;;;;;;;;;;;;;;;;4382287;32;65816;-65
2022/11/27 05:12:03;;;;;;;8.02;2.67;;;;;;;;;;4382011;32;67572;-66
2022/11/27 05:14:50;;;;;;;6.68;2.50;;;;;;;;;;4381666;32;59853;-66
2022/11/27 05:17:37;;;;;;;6.75;2.70;;;;;;;;;;4360490;32;71096;-65
2022/11/27 05:20:24;;;;;;;7.22;2.62;;;;;;;;;;4383128;32;65899;-65
2022/11/27 05:23:10;;;;;;;;;;;;;;;;;;4382240;32;68251;-66
2022/11/27 05:25:57;;;;;;;5.25;2.72;;;;;;;;;;4392663;32;59951;-65
2022/11/27 05:28:44;;;;;;;6.85;2.80;;;;;;;;;;4382312;32;69283;-64
2022/11/27 05:31:30;;;;;;;5.70;2.92;;;;;;;;;;4371196;32;69651;-65
2022/11/27 05:34:17;;;;;;;4.97;2.70;;;;;;;;;;4381496;32;67243;-64
2022/11/27 05:37:04;;;;;;;8.38;3.00;;;;;;;;;;4360351;32;71702;-66
2022/11/27 05:39:50;;;;;;;4.37;2.45;;;;;;;;;;4383909;32;64950;-65
2022/11/27 05:42:37;;;;;;;7.22;2.58;;;;;;;;;;4382104;32;68336;-64
2022/11/27 05:45:23;;;;;;;5.47;3.30;;;;;;;;;;4371103;32;67879;-64
2022/11/27 05:48:10;;;;;;;4.28;2.37;;;;;;;;;;4381669;32;70995;-64
2022/11/27 05:50:57;;;;;;;9.05;3.65;;;;;;;;;;4381869;32;66001;-65
2022/11/27 05:53:43;;;;;;;5.55;2.55;;;;;;;;;;4370847;32;68358;-66
2022/11/27 05:56:30;;;;;;;5.70;3.15;;;;;;;;;;4371316;32;60321;-66
2022/11/27 05:59:17;;;;;;;6.43;2.72;;;;;;;;;;4382897;32;70300;-65
2022/11/27 06:02:03;;;;;;;;;;;;;;;;;;4383108;32;68907;-65
2022/11/27 06:04:50;;;;;;;6.53;2.87;;;;;;;;;;4382946;32;67108;-64
2022/11/27 06:07:36;;;;;;;4.80;2.65;;;;;;;;;;4370881;32;59161;-66
2022/11/27 06:10:23;;;;;;;4.97;2.70;;;;;;;;;;4348959;32;68351;-66
2022/11/27 06:13:10;;;;;;;4.40;2.17;;;;;;;;;;4360342;32;69264;-65
2022/11/27 06:15:56;;;;;;;;;;;;;;;;;;4371310;32;67656;-66
2022/11/27 06:18:43;;;;;;;6.95;3.15;;;;;;;;;;4380564;32;71818;-66
2022/11/27 06:21:29;;;;;;;5.35;2.80;;;;;;;;;;4381385;32;65812;-64
2022/11/27 06:24:16;;;;;;;9.63;3.35;;;;;;;;;;4369906;32;67943;-65
2022/11/27 06:27:03;;;;;;;10.95;4.03;;;;;;;;;;4381089;32;59597;-65
2022/11/27 06:29:49;;;;;;;7.12;3.25;;;;;;;;;;4359295;32;71301;-65
2022/11/27 06:32:36;;;;;;;;;;;;;;;;;;4383063;32;65007;-66
2022/11/27 06:35:23;;;;;;;12.93;4.45;;;;;;;;;;4381240;32;68411;-66
2022/11/27 06:38:09;;;;;;;10.50;6.43;;;;;;;;;;4381883;32;60342;-64
2022/11/27 06:41:02;;;;;;;10.48;4.15;;;;;;;;;;4361968;32;71736;-66
2022/11/27 06:43:49;;;;;;;8.38;4.50;;;;;;;;;;4372197;32;68808;-65
2022/11/27 06:46:36;;;;;;;10.93;5.37;;;;;;;;;;4361648;32;68411;-65
2022/11/27 06:49:23;;;;;;;9.10;4.53;;;;;;;;;;4384776;32;71807;-64
2022/11/27 06:52:09;;;;;;;9.43;4.97;;;;;;;;;;4371889;32;65984;-65
2022/11/27 06:54:56;;;;;;;13.77;5.95;;;;;;;;;;4385206;32;68313;-65
2022/11/27 07:00:25;;;;;;;14.43;4.37;;;;;;;;;;3847504;37;43594;-65
2022/11/27 07:03:12;;;;;;;7.75;4.53;;;;;;;;;;4399398;32;59599;-66
2022/11/27 07:06:00;;;;;;;13.05;4.78;;;;;;;;;;4409741;32;70769;-65
2022/11/27 07:08:47;;;;;;;15.80;5.03;;;;;;;;;;4387696;32;69973;-65
2022/11/27 07:11:34;;;;;;;11.82;5.75;;;;;;;;;;4411172;32;66622;-65
2022/11/27 07:14:21;;;;;;;9.48;5.45;;;;;;;;;;4398929;32;71510;-66
2022/11/27 07:17:08;;;;;;;9.90;6.05;;;;;;;;;;4398871;32;66047;-65
2022/11/27 07:19:54;;;;;;;16.02;6.47;;;;;;;;;;4410968;32;67754;-65
2022/11/27 07:22:41;;;;;;;14.82;5.50;;;;;;;;;;4387327;32;59880;-65
2022/11/27 07:25:28;;;;;;;12.93;5.10;;;;;;;;;;4398684;32;70864;-65
2022/11/27 07:28:14;;;;;;;10.55;5.05;;;;;;;;;;4409695;32;64981;-65
2022/11/27 07:31:01;;;;;;;7.97;3.28;;;;;;;;;;4410837;32;67337;-65
2022/11/27 07:33:47;;;;;;;9.57;3.87;;;;;;;;;;4398359;32;60756;-65
2022/11/27 07:36:34;;;;;;;11.35;4.40;;;;;;;;;;4409254;32;70832;-65
2022/11/27 07:39:21;;;;;;;13.25;4.37;;;;;;;;;;4410654;32;68446;-65
2022/11/27 07:42:07;;;;;;;;;;;;;;;;;;4398773;32;67642;-65
2022/11/27 07:44:54;;;;;;;11.57;3.90;;;;;;;;;;4398162;32;72633;-66
2022/11/27 07:47:40;;;;;;;6.62;2.83;;;;;;;;;;4409610;32;65035;-65
2022/11/27 07:50:27;;;;;;;5.12;2.90;;;;;;;;;;4397992;32;69798;-65
2022/11/27 07:53:13;;;;;;;9.93;4.03;;;;;;;;;;4409646;32;67987;-65
2022/11/27 07:56:00;;;;;;;6.35;3.50;;;;;;;;;;4408986;32;70882;-64
2022/11/27 07:58:47;;;;;;;9.73;3.80;;;;;;;;;;4397498;32;65675;-64
2022/11/27 08:01:33;;;;;;;7.90;2.87;;;;;;;;;;4397543;32;68016;-65
2022/11/27 08:04:20;;;;;;;8.32;3.53;;;;;;;;;;4386951;32;60671;-64
2022/11/27 08:07:07;;;;;;;;;;;;;;;;;;4398442;32;69760;-66
2022/11/27 08:09:53;;;;;;;12.45;4.65;;;;;;;;;;4406713;32;68609;-65
2022/11/27 08:12:40;;;;;;;11.12;4.40;;;;;;;;;;4398773;32;67729;-66
2022/11/27 08:15:27;;;;;;;8.30;4.50;;;;;;;;;;4388213;32;60085;-65
2022/11/27 08:18:13;;;;;;;9.65;3.80;;;;;;;;;;4376797;32;70421;-65
2022/11/27 08:21:00;;;;;;;7.30;3.60;;;;;;;;;;4398621;32;68344;-65
2022/11/27 08:23:46;;;;;;;8.23;3.03;;;;;;;;;;4399820;32;67978;-65
2022/11/27 08:26:33;;;;;;;;;;;;;;;;;;4376605;32;72389;-65
2022/11/27 08:29:20;;;;;;;10.77;3.15;;;;;;;;;;4387990;32;66402;-64
2022/11/27 08:32:07;;;;;;;6.12;2.87;;;;;;;;;;4377268;32;67464;-64
2022/11/27 08:34:53;;;;;;;8.55;2.92;;;;;;;;;;4399911;32;59184;-68
2022/11/27 08:37:40;;;;;;;5.12;2.62;;;;;;;;;;4387661;32;69522;-65
2022/11/27 08:40:27;;;;;;;5.95;2.80;;;;;;;;;;4388351;32;64850;-65
2022/11/27 08:43:13;;;;;;;12.25;3.53;;;;;;;;;;4377462;32;65996;-65
2022/11/27 08:46:02;;;;;;;4.90;2.95;;;;;;;;;;4400820;32;59938;-64
2022/11/27 08:48:49;;;;;;;10.00;2.95;;;;;;;;;;4399292;32;70297;-66
2022/11/27 08:51:36;;;;;;;10.27;3.00;;;;;;;;;;4377260;32;69254;-66
2022/11/27 08:54:23;;;;;;;8.43;3.47;;;;;;;;;;4398449;32;66750;-66
2022/11/27 08:57:09;;;;;;;11.88;3.85;;;;;;;;;;4397646;32;69410;-65
2022/11/27 08:59:56;;;;;;;10.70;3.60;;;;;;;;;;4397298;32;65672;-66
2022/11/27 09:02:43;;;;;;;8.60;3.10;;;;;;;;;;4398554;32;67064;-65
2022/11/27 09:05:30;;;;;;;11.73;3.40;;;;;;;;;;4386574;32;68310;-66
2022/11/27 09:08:20;;;;;;;5.45;2.70;;;;;;;;;;4399354;32;70867;-66
2022/11/27 09:11:07;;;;;;;5.05;2.95;;;;;;;;;;4387509;32;65063;-66
2022/11/27 09:13:54;;;;;;;5.93;2.75;;;;;;;;;;4398019;32;67617;-65
2022/11/27 09:16:40;;;;;;;;;;;;;;;;;;4398619;32;60169;-66
2022/11/27 09:19:27;;;;;;;7.95;3.15;;;;;;;;;;4399231;32;69932;-65
2022/11/27 09:22:13;;;;;;;9.15;3.53;;;;;;;;;;4386252;32;69566;-65
2022/11/27 09:25:00;;;;;;;12.95;3.53;;;;;;;;;;4386829;32;68830;-65
2022/11/27 09:27:47;;;;;;;12.85;3.35;;;;;;;;;;4376389;32;59359;-64
2022/11/27 09:30:34;;;;;;;6.32;2.37;;;;;;;;;;4387230;32;69586;-65
2022/11/27 09:33:20;;;;;;;8.10;2.87;;;;;;;;;;4397834;32;68530;-65
2022/11/27 09:36:09;;;;;;;6.47;2.70;;;;;;;;;;4397828;32;66777;-65
2022/11/27 09:38:59;;;;;;;4.55;2.37;;;;;;;;;;4397364;32;71512;-65
2022/11/27 09:41:55;;;;;;;7.28;2.97;;;;;;;;;;4396895;32;67310;-65
2022/11/27 09:44:44;;;;;;;6.22;2.60;;;;;;;;;;4376510;32;67833;-64
2022/11/27 09:47:53;;;;;;;4.53;2.30;;;;;;;;;;4397958;32;60159;-65
2022/11/27 09:50:49;;;;;;;7.68;2.50;;;;;;;;;;4397332;32;70478;-64
2022/11/27 09:53:48;;;;;;;3.90;2.03;;;;;;;;;;4397563;32;65714;-65
2022/11/27 09:56:36;;;;;;;6.03;2.62;;;;;;;;;;4397599;32;67559;-65
2022/11/27 09:59:49;;;;;;;7.20;2.42;;;;;;;;;;4397417;32;59428;-65
2022/11/27 10:02:36;;;;;;;4.68;2.60;;;;;;;;;;4397175;32;70511;-64
2022/11/27 10:05:32;;;;;;;4.15;2.22;;;;;;;;;;4397290;32;68717;-65
2022/11/27 10:08:41;;;;;;;6.10;2.40;;;;;;;;;;4386675;32;68022;-65
2022/11/27 10:12:00;;;;;;;5.35;2.53;;;;;;;;;;4375730;32;72212;-65
2022/11/27 10:15:31;;;;;;;4.68;2.05;;;;;;;;;;4375800;32;66171;-65
2022/11/27 10:18:30;;;;;;;6.45;2.97;;;;;;;;;;4386814;32;67693;-65
2022/11/27 10:22:06;;;;;;;4.55;2.35;;;;;;;;;;4375441;32;68221;-64
2022/11/27 10:25:34;;;;;;;8.88;2.65;;;;;;;;;;4359040;32;71756;-65
2022/11/27 10:28:44;;;;;;;10.07;2.70;;;;;;;;;;4325388;32;65074;-64
2022/11/27 10:31:51;;;;;;;6.30;2.70;;;;;;;;;;4314957;32;67630;-64
2022/11/27 10:34:52;;;;;;;4.93;3.08;;;;;;;;;;4386422;32;59320;-66
2022/11/27 10:38:00;;;;;;;5.78;2.42;;;;;;;;;;4386233;32;69682;-64
2022/11/27 10:40:49;;;;;;;;;;;;;;;;;;4397276;32;69315;-65
2022/11/27 10:43:36;;;;;;;4.10;2.47;;;;;;;;;;4397146;32;67027;-64
2022/11/27 10:46:29;;;;;;;8.35;3.60;;;;;;;;;;4386582;32;71631;-65
2022/11/27 10:49:15;;;;;;;6.12;2.35;;;;;;;;;;4385752;32;71018;-64
2022/11/27 10:52:02;;;;;;;4.93;2.42;;;;;;;;;;4397025;32;68181;-65
2022/11/27 10:55:02;;;;;;;5.80;2.97;;;;;;;;;;4396958;32;66781;-64
2022/11/27 10:58:23;;;;;;;7.25;3.10;;;;;;;;;;4396306;32;70594;-65
2022/11/27 11:01:15;;;;;;;6.55;3.00;;;;;;;;;;4332408;32;67145;-64
2022/11/27 11:04:09;;;;;;;8.60;3.65;;;;;;;;;;4355599;32;67081;-65
2022/11/27 11:06:56;;;;;;;5.80;3.17;;;;;;;;;;4355727;32;60953;-65
2022/11/27 11:09:47;;;;;;;8.13;3.00;;;;;;;;;;4378196;32;69461;-64
2022/11/27 11:12:34;;;;;;;7.57;3.75;;;;;;;;;;4366629;32;68530;-65
2022/11/27 11:15:21;;;;;;;10.00;3.60;;;;;;;;;;4367588;32;66920;-65
2022/11/27 11:18:20;;;;;;;9.82;3.92;;;;;;;;;;4368027;32;60319;-65
2022/11/27 11:21:12;;;;;;;11.60;3.75;;;;;;;;;;4367598;32;69519;-66
2022/11/27 11:24:05;;;;;;;8.63;3.20;;;;;;;;;;4355760;32;68345;-65
2022/11/27 11:27:05;;;;;;;8.38;3.33;;;;;;;;;;4344778;32;68246;-66
2022/11/27 11:30:00;;;;;;;9.30;3.12;;;;;;;;;;4344704;32;69542;-65
2022/11/27 11:32:50;;;;;;;7.12;3.60;;;;;;;;;;4345381;32;65994;-65
2022/11/27 11:35:37;;;;;;;7.50;2.90;;;;;;;;;;4355885;32;66572;-64
2022/11/27 11:38:26;;;;;;;;;;;;;;;;;;4356580;32;59962;-66
2022/11/27 11:41:16;;;;;;;12.70;3.37;;;;;;;;;;4365559;32;71463;-66
2022/11/27 11:44:03;;;;;;;5.35;2.80;;;;;;;;;;4355635;32;65785;-65
2022/11/27 11:46:54;;;;;;;11.77;3.50;;;;;;;;;;4369552;32;67816;-65
2022/11/27 11:49:40;;;;;;;8.85;2.95;;;;;;;;;;4358574;32;60592;-65
2022/11/27 11:52:34;;;;;;;9.38;2.67;;;;;;;;;;4369039;32;70730;-65
2022/11/27 11:55:34;;;;;;;6.55;2.75;;;;;;;;;;4358296;32;68401;-64
2022/11/27 11:59:05;;;;;;;6.28;2.60;;;;;;;;;;4372955;32;66696;-65
2022/11/27 12:02:30;;;;;;;6.22;2.60;;;;;;;;;;4398947;32;71738;-64
2022/11/27 12:05:37;;;;;;;5.30;2.45;;;;;;;;;;4398646;32;69629;-65
2022/11/27 12:08:50;;;;;;;5.90;2.55;;;;;;;;;;4387949;32;68541;-64
2022/11/27 12:11:48;;;;;;;7.60;2.67;;;;;;;;;;4366344;32;64975;-64
2022/11/27 12:15:06;;;;;;;3.55;2.10;;;;;;;;;;4399785;32;70783;-65
2022/11/27 12:18:43;;;;;;;7.72;3.12;;;;;;;;;;4398222;32;65761;-65
2022/11/27 12:21:53;;;;;;;13.07;3.50;;;;;;;;;;4381618;32;67847;-65
2022/11/27 12:25:05;;;;;;;6.53;2.65;;;;;;;;;;4398816;32;59490;-64
2022/11/27 12:28:11;;;;;;;7.47;2.55;;;;;;;;;;4387305;32;71260;-64
2022/11/27 12:31:18;;;;;;;10.68;3.37;;;;;;;;;;4387454;32;68391;-65
2022/11/27 12:34:11;;;;;;;9.50;2.97;;;;;;;;;;4376823;32;65513;-65
2022/11/27 12:37:29;;;;;;;6.57;3.20;;;;;;;;;;4400412;32;60455;-65
2022/11/27 12:40:47;;;;;;;7.82;2.85;;;;;;;;;;4377791;32;71196;-65
2022/11/27 12:43:38;;;;;;;7.30;2.72;;;;;;;;;;4376497;32;70328;-65
2022/11/27 12:46:55;;;;;;;7.30;2.30;;;;;;;;;;4398228;32;67556;-64
2022/11/27 12:49:50;;;;;;;4.03;2.30;;;;;;;;;;4376428;32;72375;-65
2022/11/27 12:52:42;;;;;;;5.60;2.67;;;;;;;;;;4387520;32;66160;-64
2022/11/27 12:55:30;;;;;;;7.75;3.00;;;;;;;;;;4376783;32;68389;-65
2022/11/27 12:58:30;;;;;;;5.50;3.22;;;;;;;;;;4387226;32;60724;-64
2022/11/27 13:01:27;;;;;;;9.20;3.45;;;;;;;;;;4387436;32;71767;-65
2022/11/27 13:04:34;;;;;;;5.90;2.87;;;;;;;;;;4397616;32;67029;-64
2022/11/27 13:07:46;;;;;;;4.20;2.47;;;;;;;;;;4397950;32;68065;-65
2022/11/27 13:10:44;;;;;;;6.90;2.75;;;;;;;;;;4398571;32;60129;-65
2022/11/27 13:13:50;;;;;;;7.47;2.70;;;;;;;;;;4376825;32;70617;-65
2022/11/27 13:16:45;;;;;;;6.45;2.58;;;;;;;;;;4387267;32;69310;-64
2022/11/27 13:19:38;;;;;;;5.43;2.55;;;;;;;;;;4376605;32;67642;-66
2022/11/27 13:22:31;;;;;;;6.68;2.70;;;;;;;;;;4387493;32;72229;-66
2022/11/27 13:25:18;;;;;;;4.80;2.37;;;;;;;;;;4398147;32;64999;-64
2022/11/27 13:28:05;;;;;;;4.57;2.60;;;;;;;;;;4386110;32;70926;-65
2022/11/27 13:30:53;;;;;;;5.18;2.67;;;;;;;;;;4399049;32;67847;-65
2022/11/27 13:33:42;;;;;;;6.12;2.95;;;;;;;;;;4386480;32;71305;-64
2022/11/27 13:36:34;;;;;;;6.68;3.55;;;;;;;;;;4376247;32;66632;-65
2022/11/27 13:39:35;;;;;;;5.55;2.35;;;;;;;;;;4387018;32;67009;-65
2022/11/27 13:42:22;;;;;;;4.50;2.33;;;;;;;;;;4387252;32;60348;-65
2022/11/27 13:45:18;;;;;;;7.22;3.22;;;;;;;;;;4386994;32;69611;-65
2022/11/27 13:48:43;;;;;;;5.28;2.65;;;;;;;;;;4397610;32;69312;-65
2022/11/27 13:51:34;;;;;;;7.60;2.70;;;;;;;;;;4386179;32;67376;-65
2022/11/27 13:54:21;;;;;;;6.22;2.72;;;;;;;;;;4386547;32;60657;-64
2022/11/27 13:57:19;;;;;;;6.53;2.95;;;;;;;;;;4396927;32;71339;-65
2022/11/27 14:00:09;;;;;;;8.07;2.70;;;;;;;;;;4397026;32;69330;-65
2022/11/27 14:02:59;;;;;;;4.70;2.17;;;;;;;;;;4397267;32;67934;-65
2022/11/27 14:05:46;;;;;;;11.15;3.12;;;;;;;;;;4385817;32;72460;-64
2022/11/27 14:08:33;;;;;;;;;;;;;;;;;;4375127;32;65848;-65
2022/11/27 14:11:42;;;;;;;5.53;2.73;;;;;;;;;;4397623;32;67405;-66
2022/11/27 14:14:29;;;;;;;4.93;2.50;;;;;;;;;;4397586;32;60134;-65
2022/11/27 14:17:44;;;;;;;7.65;2.90;;;;;;;;;;4376666;32;70763;-65
2022/11/27 14:20:32;;;;;;;5.07;2.70;;;;;;;;;;4396712;32;66173;-64
2022/11/27 14:23:33;;;;;;;6.60;2.58;;;;;;;;;;4385969;32;65904;-65
2022/11/27 14:26:22;;;;;;;4.95;2.70;;;;;;;;;;4397212;32;60211;-65
2022/11/27 14:29:11;;;;;;;6.47;3.00;;;;;;;;;;4397233;32;70482;-64
2022/11/27 14:32:00;;;;;;;7.75;3.00;;;;;;;;;;4398445;32;68333;-65
2022/11/27 14:34:47;;;;;;;4.85;2.55;;;;;;;;;;4396993;32;67828;-64
2022/11/27 14:37:34;;;;;;;5.55;3.00;;;;;;;;;;4398518;32;71745;-65
2022/11/27 14:40:24;;;;;;;;;;;;;;;;;;4386930;32;64871;-65
2022/11/27 14:43:15;;;;;;;5.65;2.70;;;;;;;;;;4386349;32;69961;-65
2022/11/27 14:46:04;;;;;;;5.53;3.00;;;;;;;;;;4386136;32;67716;-65
2022/11/27 14:48:55;;;;;;;10.10;2.62;;;;;;;;;;4396219;32;72403;-65
2022/11/27 14:51:42;;;;;;;6.12;3.45;;;;;;;;;;4386446;32;66004;-65
2022/11/27 14:54:32;;;;;;;11.02;3.37;;;;;;;;;;4396843;32;67855;-65
2022/11/27 14:57:26;;;;;;;7.12;3.00;;;;;;;;;;4386431;32;60143;-65
2022/11/27 15:00:23;;;;;;;8.88;3.28;;;;;;;;;;4374489;32;71225;-65
2022/11/27 15:03:10;;;;;;;11.50;2.80;;;;;;;;;;4398117;32;69547;-65
2022/11/27 15:06:03;;;;;;;;;;;;;;;;;;4385531;32;68278;-65
2022/11/27 15:08:50;;;;;;;3.97;2.33;;;;;;;;;;4397192;32;59444;-64
2022/11/27 15:11:36;;;;;;;5.10;2.55;;;;;;;;;;4397953;32;69481;-64
2022/11/27 15:14:27;;;;;;;5.22;2.55;;;;;;;;;;4396708;32;68151;-65
2022/11/27 15:17:16;;;;;;;7.82;2.95;;;;;;;;;;4396982;32;68070;-65
2022/11/27 15:20:12;;;;;;;7.82;2.97;;;;;;;;;;4376381;32;71962;-65
2022/11/27 15:23:00;;;;;;;5.70;2.37;;;;;;;;;;4389450;32;64734;-65
2022/11/27 15:26:01;;;;;;;5.28;2.40;;;;;;;;;;4400973;32;68231;-65
2022/11/27 15:28:53;;;;;;;3.87;2.40;;;;;;;;;;4400498;32;60041;-65
2022/11/27 15:31:50;;;;;;;4.00;2.42;;;;;;;;;;4399053;32;69342;-66
2022/11/27 15:34:36;;;;;;;4.37;2.62;;;;;;;;;;4377801;32;66903;-64
2022/11/27 15:37:27;;;;;;;5.62;2.95;;;;;;;;;;4400846;32;68084;-64
2022/11/27 15:40:30;;;;;;;4.37;2.50;;;;;;;;;;4388792;32;59173;-66
2022/11/27 15:43:17;;;;;;;4.80;2.20;;;;;;;;;;4366446;32;71280;-65
2022/11/27 15:46:07;;;;;;;6.85;2.75;;;;;;;;;;4400534;32;69231;-64
2022/11/27 15:48:53;;;;;;;10.35;3.03;;;;;;;;;;4388927;32;66865;-66
2022/11/27 15:51:40;;;;;;;3.67;2.15;;;;;;;;;;4389078;32;70545;-65
2022/11/27 15:54:27;;;;;;;4.28;2.45;;;;;;;;;;4388995;32;65787;-65
2022/11/27 15:57:14;;;;;;;6.87;2.40;;;;;;;;;;4388416;32;68448;-65
2022/11/27 16:00:02;;;;;;;5.75;2.45;;;;;;;;;;4398511;32;66757;-64
2022/11/27 16:02:57;;;;;;;5.10;2.70;;;;;;;;;;4400207;32;71532;-65
2022/11/27 16:05:44;;;;;;;;;;;;;;;;;;4399383;32;66035;-66
2022/11/27 16:08:30;;;;;;;7.45;2.92;;;;;;;;;;4398933;32;67283;-65
2022/11/27 16:11:18;;;;;;;5.80;2.62;;;;;;;;;;4388715;32;60130;-66
2022/11/27 16:14:04;;;;;;;5.00;2.62;;;;;;;;;;4400358;32;69806;-65
2022/11/27 16:16:52;;;;;;;4.75;2.25;;;;;;;;;;4398812;32;68363;-65
2022/11/27 16:19:38;;;;;;;;;;;;;;;;;;4399274;32;68334;-65
2022/11/27 16:22:25;;;;;;;4.72;2.40;;;;;;;;;;4400791;32;71932;-66
2022/11/27 16:25:12;;;;;;;5.87;2.37;;;;;;;;;;4388358;32;69647;-65
2022/11/27 16:27:58;;;;;;;5.15;2.45;;;;;;;;;;4401364;32;69524;-65
2022/11/27 16:30:45;;;;;;;5.25;2.45;;;;;;;;;;4390730;32;66766;-66
2022/11/27 16:33:33;;;;;;;6.43;2.72;;;;;;;;;;4399887;32;71651;-65
2022/11/27 16:36:22;;;;;;;5.12;2.72;;;;;;;;;;4377723;32;66697;-65
2022/11/27 16:39:11;;;;;;;7.05;2.70;;;;;;;;;;4387268;32;68851;-63
2022/11/27 16:41:58;;;;;;;5.50;2.42;;;;;;;;;;4398945;32;60119;-66
2022/11/27 16:44:46;;;;;;;5.25;2.10;;;;;;;;;;4387202;32;70388;-65
2022/11/27 16:47:32;;;;;;;6.07;2.50;;;;;;;;;;4387678;32;69960;-64
2022/11/27 16:50:19;;;;;;;4.00;2.37;;;;;;;;;;4366612;32;66242;-65
2022/11/27 16:53:06;;;;;;;3.00;1.80;;;;;;;;;;4388128;32;60018;-65
2022/11/27 16:55:54;;;;;;;9.85;3.35;;;;;;;;;;4387764;32;70716;-64
2022/11/27 16:58:42;;;;;;;6.32;2.42;;;;;;;;;;4397662;32;68825;-65
2022/11/27 17:01:32;;;;;;;6.30;3.35;;;;;;;;;;4387727;32;67584;-65
2022/11/27 17:04:20;;;;;;;3.53;2.05;;;;;;;;;;4387582;32;71276;-65
2022/11/27 17:07:06;;;;;;;5.35;2.90;;;;;;;;;;4387700;32;64546;-65
2022/11/27 17:09:53;;;;;;;8.18;2.72;;;;;;;;;;4399883;32;67690;-65
2022/11/27 17:12:40;;;;;;;;;;;;;;;;;;4376448;32;67237;-66
2022/11/27 17:15:27;;;;;;;5.35;2.97;;;;;;;;;;4398484;32;71579;-65
2022/11/27 17:18:15;;;;;;;3.72;2.12;;;;;;;;;;4398307;32;65812;-65